Terminal Aerodrome Forecast
Issued by NWS

Home | Current Version | Previous Version | Graphics & Text | Print | Product List | Glossary On
Versions: 1 2 3 4 5 6 7 8 9 10 11 12 13 14
000
FTUS43 KBIS 201120
TAFMOT
TAF
KMOT 201120Z 2012/2112 00000KT 6SM BR SCT200
     FM201400 15006KT P6SM SCT090 BKN200
     FM210900 19005KT P6SM SCT070=

USA.gov is the U.S. government's official web portal to all federal, state and local government web resources and services.